Time;durP1;ratioP1;P1;durP2;ratioP2;P2;SDS_P1;SDS_P2;PMS_P1;PMS_P2;Temp;Humidity;BMP_temperature;BMP_pressure;BME280_temperature;BME280_humidity;BME280_pressure;Samples;Min_cycle;Max_cycle;Signal;HPM_P1;HPM_P2
2022/12/02 00:02:19;;;;;;;;;;;14.10;94.90;;;;;;4999655;28;19925;-63
2022/12/02 00:04:45;;;;;;;;;;;14.00;94.90;;;;;;5033698;28;19991;-62
2022/12/02 00:07:12;;;;;;;;;;;13.90;94.90;;;;;;5036385;28;19925;-63
2022/12/02 00:09:38;;;;;;;;;;;;;;;;;;5017128;28;19968;-68
2022/12/02 00:12:19;;;;;;;;;;;14.00;95.00;;;;;;5045767;28;19999;-66
2022/12/02 00:14:44;;;;;;;;;;;13.90;94.90;;;;;;5012585;28;19972;-62
2022/12/02 00:17:10;;;;;;;;;;;14.00;94.90;;;;;;4996353;28;19969;-63
2022/12/02 00:19:35;;;;;;;;;;;14.30;95.00;;;;;;5012459;28;19984;-63
2022/12/02 00:22:01;;;;;;;;;;;14.00;94.90;;;;;;5014122;28;19930;-64
2022/12/02 00:24:27;;;;;;;;;;;13.90;94.90;;;;;;5012596;28;20000;-62
2022/12/02 00:26:52;;;;;;;;;;;14.00;94.80;;;;;;5026646;28;19925;-63
2022/12/02 00:29:18;;;;;;;;;;;14.10;94.90;;;;;;5064066;28;19929;-62
2022/12/02 00:31:43;;;;;;;;;;;13.90;94.80;;;;;;5065462;28;19971;-63
2022/12/02 00:34:09;;;;;;;;;;;13.90;94.50;;;;;;5033653;28;20017;-63
2022/12/02 00:36:35;;;;;;;;;;;14.10;94.70;;;;;;5033728;28;19936;-63
2022/12/02 00:39:00;;;;;;;;;;;14.00;94.70;;;;;;5063719;28;20458;-62
2022/12/02 00:41:26;;;;;;;;;;;13.80;94.70;;;;;;5065618;28;20279;-63
2022/12/02 00:46:36;;;;;;;;;;;13.90;94.70;;;;;;5018365;28;19925;-64
2022/12/02 00:49:12;;;;;;;;;;;13.80;94.70;;;;;;5029508;28;19925;-63
2022/12/02 00:51:38;;;;;;;;;;;14.10;94.70;;;;;;5018365;28;19925;-62
2022/12/02 00:54:04;;;;;;;;;;;14.00;94.70;;;;;;5052408;28;19980;-62
2022/12/02 00:56:29;;;;;;;;;;;13.80;94.60;;;;;;5068218;28;19980;-63
2022/12/02 00:58:55;;;;;;;;;;;13.90;94.30;;;;;;5066873;28;19929;-64
2022/12/02 01:01:20;;;;;;;;;;;13.60;94.60;;;;;;5035652;28;19925;-65
2022/12/02 01:03:46;;;;;;;;;;;13.90;94.60;;;;;;5037156;28;19925;-62
2022/12/02 01:06:12;;;;;;;;;;;14.00;94.50;;;;;;5036746;28;19921;-63
2022/12/02 01:08:38;;;;;;;;;;;13.70;94.50;;;;;;5035528;28;19925;-62
2022/12/02 01:11:04;;;;;;;;;;;;;;;;;;5033871;28;19932;-62
2022/12/02 01:13:29;;;;;;;;;;;13.70;94.50;;;;;;5035258;28;19925;-63
2022/12/02 01:15:55;;;;;;;;;;;13.80;94.50;;;;;;5036436;28;19925;-62
2022/12/02 01:18:21;;;;;;;;;;;;;;;;;;5037102;28;19921;-64
2022/12/02 01:20:47;;;;;;;;;;;13.90;94.50;;;;;;5033567;28;20382;-63
2022/12/02 01:23:12;;;;;;;;;;;13.90;94.50;;;;;;5030242;28;19983;-62
2022/12/02 01:25:39;;;;;;;;;;;13.80;94.50;;;;;;5015713;28;19921;-63
2022/12/02 01:28:04;;;;;;;;;;;13.80;94.50;;;;;;5016895;28;19930;-63
2022/12/02 01:30:30;;;;;;;;;;;14.00;94.40;;;;;;5024060;28;19921;-62
2022/12/02 01:32:56;;;;;;;;;;;13.70;94.40;;;;;;5035739;28;19932;-63
2022/12/02 01:35:21;;;;;;;;;;;14.00;94.50;;;;;;5016482;28;19925;-62
2022/12/02 01:37:47;;;;;;;;;;;14.00;94.50;;;;;;5015183;28;19969;-63
2022/12/02 01:40:13;;;;;;;;;;;13.80;94.40;;;;;;5023187;28;19929;-63
2022/12/02 01:42:38;;;;;;;;;;;13.80;94.40;;;;;;5051253;28;19925;-63
2022/12/02 01:45:04;;;;;;;;;;;13.70;94.40;;;;;;5026989;28;19937;-62
2022/12/02 01:47:30;;;;;;;;;;;13.70;94.40;;;;;;5026208;28;20015;-62
2022/12/02 01:49:56;;;;;;;;;;;13.80;94.40;;;;;;5035666;28;19971;-66
2022/12/02 01:52:21;;;;;;;;;;;13.90;94.30;;;;;;5016137;28;19965;-63
2022/12/02 01:54:47;;;;;;;;;;;;;;;;;;5017812;28;20023;-63
2022/12/02 01:57:13;;;;;;;;;;;13.80;94.30;;;;;;5035807;28;20394;-63
2022/12/02 01:59:39;;;;;;;;;;;13.90;94.30;;;;;;5036088;28;19933;-65
2022/12/02 02:02:23;;;;;;;;;;;13.70;94.40;;;;;;5066636;28;19929;-62
2022/12/02 02:04:49;;;;;;;;;;;13.60;94.30;;;;;;5020265;28;19925;-63
2022/12/02 02:07:15;;;;;;;;;;;13.50;94.20;;;;;;5047617;28;20345;-62
2022/12/02 02:09:40;;;;;;;;;;;13.80;94.30;;;;;;4998231;28;19925;-62
2022/12/02 02:12:06;;;;;;;;;;;14.00;94.40;;;;;;5014840;28;19961;-62
2022/12/02 02:14:32;;;;;;;;;;;13.80;94.20;;;;;;5014486;28;20391;-62
2022/12/02 02:16:57;;;;;;;;;;;13.70;94.20;;;;;;5026634;28;19932;-63
2022/12/02 02:19:23;;;;;;;;;;;13.90;94.30;;;;;;5067508;28;19970;-64
2022/12/02 02:21:49;;;;;;;;;;;;;;;;;;5016169;28;20341;-66
2022/12/02 02:24:15;;;;;;;;;;;;;;;;;;5062462;28;19929;-66
2022/12/02 02:26:40;;;;;;;;;;;13.80;94.30;;;;;;5053953;28;19932;-63
2022/12/02 02:29:06;;;;;;;;;;;13.60;94.20;;;;;;5066398;28;19925;-64
2022/12/02 02:31:32;;;;;;;;;;;13.60;94.30;;;;;;5067246;28;19944;-63
2022/12/02 02:33:57;;;;;;;;;;;13.80;94.30;;;;;;5032673;28;19932;-65
2022/12/02 02:36:23;;;;;;;;;;;13.80;94.30;;;;;;5031922;28;19952;-64
2022/12/02 02:38:48;;;;;;;;;;;14.00;94.40;;;;;;5033842;28;19932;-63
2022/12/02 02:41:14;;;;;;;;;;;13.60;94.20;;;;;;5030559;28;19936;-63
2022/12/02 02:43:40;;;;;;;;;;;14.00;94.30;;;;;;5026178;28;19976;-63
2022/12/02 02:46:05;;;;;;;;;;;13.90;94.30;;;;;;5017096;28;19926;-63
2022/12/02 02:48:31;;;;;;;;;;;13.90;94.20;;;;;;5015792;28;20031;-65
2022/12/02 02:50:57;;;;;;;;;;;13.90;94.30;;;;;;5065091;28;19925;-63
2022/12/02 02:53:23;;;;;;;;;;;13.80;94.30;;;;;;5033495;28;19925;-65
2022/12/02 02:55:49;;;;;;;;;;;;;;;;;;5012880;28;19926;-63
2022/12/02 02:58:14;;;;;;;;;;;13.80;94.20;;;;;;5056879;28;19929;-64
2022/12/02 03:00:40;;;;;;;;;;;13.90;94.20;;;;;;5065784;28;20387;-63
2022/12/02 03:03:06;;;;;;;;;;;13.90;94.20;;;;;;5013464;28;19929;-66
2022/12/02 03:05:31;;;;;;;;;;;13.60;94.10;;;;;;5015319;28;19954;-63
2022/12/02 03:07:57;;;;;;;;;;;13.80;94.10;;;;;;5000117;28;19948;-64
2022/12/02 03:10:23;;;;;;;;;;;13.90;94.10;;;;;;5064934;28;19932;-64
2022/12/02 03:12:52;;;;;;;;;;;13.80;94.10;;;;;;5033467;28;20370;-64
2022/12/02 03:15:18;;;;;;;;;;;13.60;94.00;;;;;;5026476;28;19961;-65
2022/12/02 03:17:44;;;;;;;;;;;13.80;94.10;;;;;;5049728;28;19925;-64
2022/12/02 03:20:10;;;;;;;;;;;13.80;94.10;;;;;;5016255;28;19925;-63
2022/12/02 03:22:35;;;;;;;;;;;13.80;94.00;;;;;;5026670;28;20861;-63
2022/12/02 03:25:01;;;;;;;;;;;13.90;94.10;;;;;;5033088;28;19925;-66
2022/12/02 03:27:27;;;;;;;;;;;13.70;94.10;;;;;;5033312;28;20378;-65
2022/12/02 03:29:53;;;;;;;;;;;;;;;;;;5032086;28;19929;-66
2022/12/02 03:32:18;;;;;;;;;;;13.50;94.00;;;;;;5059644;28;19951;-64
2022/12/02 03:34:44;;;;;;;;;;;;;;;;;;5021934;28;19980;-64
2022/12/02 03:37:10;;;;;;;;;;;13.40;94.00;;;;;;5066179;28;19925;-64
2022/12/02 03:39:35;;;;;;;;;;;13.90;94.10;;;;;;5030740;28;19987;-64
2022/12/02 03:42:01;;;;;;;;;;;13.50;94.00;;;;;;5033107;28;19929;-64
2022/12/02 03:44:27;;;;;;;;;;;13.50;94.00;;;;;;5031535;28;20433;-65
2022/12/02 03:46:52;;;;;;;;;;;13.80;94.00;;;;;;5030103;28;19932;-63
2022/12/02 03:49:18;;;;;;;;;;;13.70;94.00;;;;;;5028629;28;19933;-64
2022/12/02 03:51:44;;;;;;;;;;;13.60;93.90;;;;;;5030262;28;19960;-63
2022/12/02 03:54:10;;;;;;;;;;;13.70;93.90;;;;;;5016076;28;20067;-63
2022/12/02 03:56:37;;;;;;;;;;;13.70;93.90;;;;;;5028800;28;20012;-62
2022/12/02 03:59:02;;;;;;;;;;;13.70;93.90;;;;;;5013112;28;19929;-63
2022/12/02 04:01:28;;;;;;;;;;;13.40;93.90;;;;;;5046148;28;20619;-62
2022/12/02 04:03:53;;;;;;;;;;;13.70;94.00;;;;;;5032586;28;20405;-63
2022/12/02 04:06:19;;;;;;;;;;;13.50;93.90;;;;;;5033311;28;19932;-63
2022/12/02 04:08:45;;;;;;;;;;;;;;;;;;5030622;28;19932;-67
2022/12/02 04:11:11;;;;;;;;;;;13.70;93.90;;;;;;5029969;28;19924;-67
2022/12/02 04:13:36;;;;;;;;;;;13.30;93.90;;;;;;5033589;28;20338;-63
2022/12/02 04:16:02;;;;;;;;;;;13.60;94.00;;;;;;5031479;28;19925;-66
2022/12/02 04:18:27;;;;;;;;;;;13.60;94.00;;;;;;5033735;28;19925;-64
2022/12/02 04:20:54;;;;;;;;;;;;;;;;;;5029038;28;19925;-65
2022/12/02 04:23:19;;;;;;;;;;;13.50;93.90;;;;;;5026280;28;19933;-64
2022/12/02 04:25:45;;;;;;;;;;;13.60;94.00;;;;;;5032306;28;19925;-63
2022/12/02 04:28:10;;;;;;;;;;;13.90;94.10;;;;;;5037096;28;20004;-67
2022/12/02 04:30:36;;;;;;;;;;;;;;;;;;5037296;28;20388;-62
2022/12/02 04:33:02;;;;;;;;;;;13.70;94.20;;;;;;5061887;28;19925;-63
2022/12/02 04:35:28;;;;;;;;;;;13.50;94.20;;;;;;5035184;28;19968;-63
2022/12/02 04:37:54;;;;;;;;;;;13.70;94.20;;;;;;5037341;28;19932;-64
2022/12/02 04:40:20;;;;;;;;;;;14.00;94.20;;;;;;5032312;28;19932;-65
2022/12/02 04:42:46;;;;;;;;;;;14.00;94.10;;;;;;5057860;28;20378;-66
2022/12/02 04:45:11;;;;;;;;;;;13.70;94.10;;;;;;5037385;28;19984;-63
2022/12/02 04:47:37;;;;;;;;;;;13.70;94.10;;;;;;5036539;28;19925;-66
2022/12/02 04:50:03;;;;;;;;;;;13.90;94.10;;;;;;5069188;28;20426;-63
2022/12/02 04:52:29;;;;;;;;;;;13.50;93.90;;;;;;5033053;28;19925;-64
2022/12/02 04:54:54;;;;;;;;;;;13.70;94.10;;;;;;5035588;28;20016;-64
2022/12/02 04:57:20;;;;;;;;;;;13.60;94.00;;;;;;5032056;28;19931;-64
2022/12/02 04:59:45;;;;;;;;;;;13.70;94.00;;;;;;5015964;28;19926;-67
2022/12/02 05:02:11;;;;;;;;;;;;;;;;;;5033339;28;20298;-66
2022/12/02 05:04:37;;;;;;;;;;;13.80;94.00;;;;;;5031629;28;19925;-63
2022/12/02 05:07:03;;;;;;;;;;;13.70;93.90;;;;;;5069098;28;19928;-62
2022/12/02 05:09:29;;;;;;;;;;;;;;;;;;5045405;28;19926;-63
2022/12/02 05:11:54;;;;;;;;;;;13.60;93.80;;;;;;5028222;28;19929;-63
2022/12/02 05:14:20;;;;;;;;;;;13.70;93.80;;;;;;5031542;28;20374;-62
2022/12/02 05:16:45;;;;;;;;;;;13.60;93.80;;;;;;5036898;28;20024;-63
2022/12/02 05:19:11;;;;;;;;;;;13.90;93.80;;;;;;5035502;28;20280;-64
2022/12/02 05:21:37;;;;;;;;;;;13.60;93.80;;;;;;5035849;28;19925;-65
2022/12/02 05:24:02;;;;;;;;;;;13.60;93.80;;;;;;5033761;28;19925;-65
2022/12/02 05:26:28;;;;;;;;;;;13.70;93.90;;;;;;5035312;28;19921;-64
2022/12/02 05:28:53;;;;;;;;;;;13.60;93.90;;;;;;5017126;28;19976;-62
2022/12/02 05:31:19;;;;;;;;;;;13.70;93.70;;;;;;5031278;28;19929;-63
2022/12/02 05:33:45;;;;;;;;;;;13.60;93.80;;;;;;5026956;28;19948;-63
2022/12/02 05:36:11;;;;;;;;;;;;;;;;;;5035179;28;19948;-63
2022/12/02 05:38:38;;;;;;;;;;;13.60;93.80;;;;;;5036257;28;19925;-66
2022/12/02 05:41:03;;;;;;;;;;;13.60;93.80;;;;;;5033823;28;19926;-62
2022/12/02 05:43:29;;;;;;;;;;;13.60;93.80;;;;;;5034626;28;19931;-62
2022/12/02 05:45:56;;;;;;;;;;;;;;;;;;5034815;28;19933;-63
2022/12/02 05:48:21;;;;;;;;;;;13.60;93.80;;;;;;5026995;28;20335;-62
2022/12/02 05:50:47;;;;;;;;;;;13.30;93.70;;;;;;5035494;28;19925;-63
2022/12/02 05:53:23;;;;;;;;;;;13.70;93.80;;;;;;5033405;28;20378;-63
2022/12/02 05:55:51;;;;;;;;;;;13.50;93.70;;;;;;5068331;28;20333;-64
2022/12/02 05:58:17;;;;;;;;;;;13.60;93.80;;;;;;5060458;28;19929;-63
2022/12/02 06:00:43;;;;;;;;;;;13.50;93.80;;;;;;5047890;28;20310;-63
2022/12/02 06:03:13;;;;;;;;;;;13.50;93.80;;;;;;5030210;28;19925;-63
2022/12/02 06:05:39;;;;;;;;;;;13.60;93.80;;;;;;5017684;28;19931;-65
2022/12/02 06:08:24;;;;;;;;;;;13.30;93.60;;;;;;5032709;28;19921;-64
2022/12/02 06:10:50;;;;;;;;;;;13.40;93.70;;;;;;5034292;28;19925;-63
2022/12/02 06:13:23;;;;;;;;;;;13.70;93.50;;;;;;5032258;28;20357;-63
2022/12/02 06:15:48;;;;;;;;;;;13.40;93.50;;;;;;5034627;28;20288;-62
2022/12/02 06:18:14;;;;;;;;;;;13.50;93.60;;;;;;5050748;28;19925;-64
2022/12/02 06:20:40;;;;;;;;;;;13.30;93.40;;;;;;5017006;28;19947;-65
2022/12/02 06:23:08;;;;;;;;;;;13.60;93.50;;;;;;5047493;28;19929;-63
2022/12/02 06:25:34;;;;;;;;;;;13.50;93.50;;;;;;5015784;28;19952;-63
2022/12/02 06:28:10;;;;;;;;;;;13.50;93.50;;;;;;5030792;28;20375;-63
2022/12/02 06:30:36;;;;;;;;;;;13.40;93.40;;;;;;5014525;28;19932;-63
2022/12/02 06:33:01;;;;;;;;;;;13.50;93.40;;;;;;5000765;28;20319;-63
2022/12/02 06:35:28;;;;;;;;;;;13.50;93.30;;;;;;5035745;28;19926;-67
2022/12/02 06:37:54;;;;;;;;;;;13.40;93.20;;;;;;5035431;28;20393;-66
2022/12/02 06:40:21;;;;;;;;;;;13.50;93.10;;;;;;5054654;28;19931;-63
2022/12/02 06:42:47;;;;;;;;;;;13.50;93.20;;;;;;5019722;28;19925;-63
2022/12/02 06:45:13;;;;;;;;;;;13.40;93.10;;;;;;5027391;28;19925;-62
2022/12/02 06:47:38;;;;;;;;;;;13.60;93.10;;;;;;5034453;28;20012;-64
2022/12/02 06:50:04;;;;;;;;;;;13.50;93.10;;;;;;5034358;28;19983;-63
2022/12/02 06:52:41;;;;;;;;;;;13.40;93.00;;;;;;5046824;28;19940;-63
2022/12/02 06:55:16;;;;;;;;;;;13.50;92.90;;;;;;5013723;28;20451;-62
2022/12/02 06:57:42;;;;;;;;;;;13.30;93.00;;;;;;5030777;28;19925;-65
2022/12/02 07:00:08;;;;;;;;;;;13.40;92.80;;;;;;5035252;28;20286;-62
2022/12/02 07:02:33;;;;;;;;;;;13.60;92.90;;;;;;5017605;28;19933;-62
2022/12/02 07:04:59;;;;;;;;;;;13.50;92.90;;;;;;5033602;28;20363;-62
2022/12/02 07:07:28;;;;;;;;;;;13.80;92.90;;;;;;5033982;28;19933;-63
2022/12/02 07:09:54;;;;;;;;;;;13.50;92.70;;;;;;5066384;28;19979;-62
2022/12/02 07:12:22;;;;;;;;;;;13.80;92.70;;;;;;5066512;28;19972;-62
2022/12/02 07:14:48;;;;;;;;;;;;;;;;;;5049133;28;19925;-61
2022/12/02 07:17:14;;;;;;;;;;;;;;;;;;5029892;28;19936;-62
2022/12/02 07:19:41;;;;;;;;;;;13.70;92.60;;;;;;5014600;28;19926;-62
2022/12/02 07:22:14;;;;;;;;;;;13.50;92.60;;;;;;5021404;28;19932;-62
2022/12/02 07:24:40;;;;;;;;;;;13.50;92.60;;;;;;5033115;28;20030;-63
2022/12/02 07:27:18;;;;;;;;;;;13.50;92.50;;;;;;5034525;28;19976;-61
2022/12/02 07:29:44;;;;;;;;;;;;;;;;;;5033310;28;19929;-64
2022/12/02 07:32:10;;;;;;;;;;;13.60;92.20;;;;;;5015110;28;20349;-62
2022/12/02 07:34:36;;;;;;;;;;;13.40;92.50;;;;;;5018483;28;19926;-62
2022/12/02 07:37:02;;;;;;;;;;;;;;;;;;5014639;28;19925;-63
2022/12/02 07:39:27;;;;;;;;;;;13.20;92.30;;;;;;5014420;28;19929;-63
2022/12/02 07:41:53;;;;;;;;;;;13.40;92.50;;;;;;5018423;28;19925;-64
2022/12/02 07:44:18;;;;;;;;;;;13.50;92.30;;;;;;5032988;28;20007;-64
2022/12/02 07:46:44;;;;;;;;;;;;;;;;;;5034473;28;19929;-63
2022/12/02 07:49:10;;;;;;;;;;;13.50;92.40;;;;;;5012314;28;20383;-65
2022/12/02 07:51:35;;;;;;;;;;;13.10;92.30;;;;;;5014446;28;19921;-64
2022/12/02 07:54:01;;;;;;;;;;;;;;;;;;5014282;28;19987;-63
2022/12/02 07:56:27;;;;;;;;;;;;;;;;;;5031183;28;20306;-64
2022/12/02 07:58:53;;;;;;;;;;;;;;;;;;5032522;28;19929;-62
2022/12/02 08:01:19;;;;;;;;;;;13.20;92.50;;;;;;5034070;28;19925;-64
2022/12/02 08:03:45;;;;;;;;;;;;;;;;;;5066125;28;20440;-63
2022/12/02 08:06:11;;;;;;;;;;;13.30;92.50;;;;;;5030771;28;19986;-65
2022/12/02 08:08:36;;;;;;;;;;;13.10;92.20;;;;;;5033539;28;19925;-65
2022/12/02 08:11:02;;;;;;;;;;;13.30;92.40;;;;;;5033821;28;19925;-64
2022/12/02 08:13:28;;;;;;;;;;;13.30;92.40;;;;;;5065849;28;19926;-63
2022/12/02 08:15:54;;;;;;;;;;;;;;;;;;5032683;28;20331;-63
2022/12/02 08:18:19;;;;;;;;;;;13.10;92.40;;;;;;5032374;28;19979;-63
2022/12/02 08:20:45;;;;;;;;;;;;;;;;;;5033434;28;19924;-65
2022/12/02 08:23:11;;;;;;;;;;;13.40;92.30;;;;;;5031739;28;19929;-63
2022/12/02 08:25:37;;;;;;;;;;;;;;;;;;5013718;28;20433;-65
2022/12/02 08:28:03;;;;;;;;;;;13.20;92.30;;;;;;5034151;28;19925;-63
2022/12/02 08:30:28;;;;;;;;;;;13.20;92.10;;;;;;5065609;28;19932;-63
2022/12/02 08:32:54;;;;;;;;;;;13.10;92.20;;;;;;5031993;28;19929;-62
2022/12/02 08:35:20;;;;;;;;;;;;;;;;;;5032536;28;19932;-67
2022/12/02 08:37:46;;;;;;;;;;;;;;;;;;5014235;28;19933;-66
2022/12/02 08:40:12;;;;;;;;;;;13.30;92.20;;;;;;5013823;28;19929;-63
2022/12/02 08:42:37;;;;;;;;;;;13.30;92.20;;;;;;5012455;28;19952;-67
2022/12/02 08:45:03;;;;;;;;;;;13.50;92.20;;;;;;5028808;28;19969;-63
2022/12/02 08:47:29;;;;;;;;;;;13.10;92.00;;;;;;5030351;28;19925;-62
2022/12/02 08:49:54;;;;;;;;;;;13.40;92.20;;;;;;5064926;28;19929;-62
2022/12/02 08:52:20;;;;;;;;;;;;;;;;;;5032888;28;19925;-64
2022/12/02 08:54:47;;;;;;;;;;;;;;;;;;5032001;28;19925;-66
2022/12/02 08:57:13;;;;;;;;;;;13.00;92.00;;;;;;5032207;28;19925;-64
2022/12/02 08:59:39;;;;;;;;;;;;;;;;;;5046385;28;19932;-67
2022/12/02 09:02:05;;;;;;;;;;;13.20;92.10;;;;;;5032997;28;20345;-63
2022/12/02 09:04:30;;;;;;;;;;;13.30;92.10;;;;;;5033504;28;20030;-62
2022/12/02 09:06:56;;;;;;;;;;;13.40;92.20;;;;;;5065252;28;19921;-65
2022/12/02 09:09:21;;;;;;;;;;;13.20;92.10;;;;;;5032693;28;19925;-65
2022/12/02 09:11:47;;;;;;;;;;;;;;;;;;5064076;28;20350;-65
2022/12/02 09:14:13;;;;;;;;;;;13.30;92.10;;;;;;5017480;28;19926;-63
2022/12/02 09:16:39;;;;;;;;;;;13.10;92.00;;;;;;5016829;28;20379;-63
2022/12/02 09:19:04;;;;;;;;;;;13.20;91.90;;;;;;5016629;28;19930;-63
2022/12/02 09:21:30;;;;;;;;;;;13.00;91.90;;;;;;5027706;28;19931;-63
2022/12/02 09:23:55;;;;;;;;;;;13.30;91.90;;;;;;5036770;28;20375;-63
2022/12/02 09:26:21;;;;;;;;;;;;;;;;;;5031313;28;19986;-64
2022/12/02 09:28:47;;;;;;;;;;;;;;;;;;5036217;28;19925;-63
2022/12/02 09:31:13;;;;;;;;;;;13.20;91.80;;;;;;5022005;28;19921;-63
2022/12/02 09:33:39;;;;;;;;;;;13.10;91.90;;;;;;5036387;28;19925;-63
2022/12/02 09:36:04;;;;;;;;;;;13.20;91.80;;;;;;5036611;28;19925;-63
2022/12/02 09:38:31;;;;;;;;;;;13.00;91.70;;;;;;5036550;28;19932;-63
2022/12/02 09:40:57;;;;;;;;;;;13.10;92.00;;;;;;5050802;28;20071;-63
2022/12/02 09:43:23;;;;;;;;;;;13.10;91.80;;;;;;5034832;28;20402;-64
2022/12/02 09:45:48;;;;;;;;;;;13.30;91.90;;;;;;5033905;28;20034;-67
2022/12/02 09:48:14;;;;;;;;;;;13.30;91.90;;;;;;5034512;28;19929;-63
2022/12/02 09:50:39;;;;;;;;;;;13.10;91.80;;;;;;5034293;28;19979;-63
2022/12/02 09:53:05;;;;;;;;;;;;;;;;;;5031890;28;19929;-63
2022/12/02 09:55:31;;;;;;;;;;;13.40;91.90;;;;;;5034977;28;19925;-66
2022/12/02 09:57:57;;;;;;;;;;;13.30;91.90;;;;;;5067925;28;20386;-63
2022/12/02 10:00:23;;;;;;;;;;;13.20;91.90;;;;;;5018181;28;19968;-68
2022/12/02 10:02:49;;;;;;;;;;;;;;;;;;5034418;28;19972;-64
2022/12/02 10:05:16;;;;;;;;;;;13.10;91.90;;;;;;5016200;28;19925;-67
2022/12/02 10:07:42;;;;;;;;;;;13.00;91.90;;;;;;5050338;28;20314;-64
2022/12/02 10:10:09;;;;;;;;;;;13.10;91.80;;;;;;5035804;28;20333;-68
2022/12/02 10:12:35;;;;;;;;;;;;;;;;;;5066849;28;19925;-67
2022/12/02 10:15:01;;;;;;;;;;;13.10;91.90;;;;;;5066548;28;19933;-62
2022/12/02 10:17:27;;;;;;;;;;;13.20;92.00;;;;;;5034275;28;19948;-63
2022/12/02 10:19:53;;;;;;;;;;;13.10;91.90;;;;;;5031894;28;19925;-64
2022/12/02 10:22:19;;;;;;;;;;;13.40;91.80;;;;;;5059248;28;20342;-63
2022/12/02 10:24:45;;;;;;;;;;;13.00;91.70;;;;;;5015542;28;19925;-64
2022/12/02 10:27:11;;;;;;;;;;;;;;;;;;5035201;28;19921;-63
2022/12/02 10:29:37;;;;;;;;;;;12.90;91.70;;;;;;5025205;28;19929;-63
2022/12/02 10:32:04;;;;;;;;;;;12.90;91.70;;;;;;5035330;28;19927;-64
2022/12/02 10:34:30;;;;;;;;;;;13.10;91.60;;;;;;5050531;28;19925;-65
2022/12/02 10:36:56;;;;;;;;;;;12.80;91.60;;;;;;5064846;28;19925;-65
2022/12/02 10:39:22;;;;;;;;;;;;;;;;;;5025056;28;19925;-63
2022/12/02 10:41:48;;;;;;;;;;;;;;;;;;5033760;28;19925;-63
2022/12/02 10:44:14;;;;;;;;;;;;;;;;;;5033744;28;19933;-67
2022/12/02 10:46:39;;;;;;;;;;;13.00;91.60;;;;;;5034129;28;20015;-65
2022/12/02 10:49:16;;;;;;;;;;;13.20;91.70;;;;;;5029887;28;19963;-63
2022/12/02 10:51:42;;;;;;;;;;;;;;;;;;5033161;28;19972;-64
2022/12/02 10:54:10;;;;;;;;;;;13.10;91.70;;;;;;5024570;28;19984;-65
2022/12/02 10:56:35;;;;;;;;;;;13.20;91.50;;;;;;5031785;28;19929;-63
2022/12/02 10:59:01;;;;;;;;;;;;;;;;;;5031119;28;20287;-66
2022/12/02 11:01:27;;;;;;;;;;;13.30;91.50;;;;;;5066636;28;19932;-63
2022/12/02 11:03:54;;;;;;;;;;;13.20;91.60;;;;;;5033702;28;19925;-66
2022/12/02 11:06:19;;;;;;;;;;;13.10;91.40;;;;;;5031184;28;19948;-64
2022/12/02 11:08:48;;;;;;;;;;;12.80;91.40;;;;;;5015239;28;20379;-64
2022/12/02 11:11:15;;;;;;;;;;;13.20;91.50;;;;;;5016287;28;20038;-62
2022/12/02 11:13:41;;;;;;;;;;;;;;;;;;5048662;28;19934;-65
2022/12/02 11:16:25;;;;;;;;;;;13.20;91.60;;;;;;5033031;28;19933;-64
2022/12/02 11:19:10;;;;;;;;;;;13.10;91.50;;;;;;5064773;28;20056;-62
2022/12/02 11:21:35;;;;;;;;;;;13.10;91.50;;;;;;5066552;28;19932;-63
2022/12/02 11:24:01;;;;;;;;;;;;;;;;;;5066297;28;20375;-63
2022/12/02 11:26:44;;;;;;;;;;;13.20;91.60;;;;;;5031827;28;20120;-63
2022/12/02 11:29:14;;;;;;;;;;;13.20;91.20;;;;;;5048175;28;19926;-63
2022/12/02 11:31:40;;;;;;;;;;;13.00;91.50;;;;;;5015533;28;20004;-63
2022/12/02 11:34:06;;;;;;;;;;;;;;;;;;5016101;28;20020;-62
2022/12/02 11:36:32;;;;;;;;;;;13.20;91.70;;;;;;5028015;28;19925;-63
2022/12/02 11:39:00;;;;;;;;;;;;;;;;;;5010477;28;19931;-69
2022/12/02 11:41:26;;;;;;;;;;;13.10;91.80;;;;;;5032361;28;20286;-65
2022/12/02 11:43:58;;;;;;;;;;;13.10;91.70;;;;;;5066088;28;19925;-63
2022/12/02 11:46:54;;;;;;;;;;;13.20;91.70;;;;;;5063006;28;19983;-63
2022/12/02 11:49:23;;;;;;;;;;;13.20;91.90;;;;;;5053048;28;20008;-65
2022/12/02 11:51:48;;;;;;;;;;;13.00;91.70;;;;;;5065080;28;19948;-62
2022/12/02 11:54:14;;;;;;;;;;;13.20;91.70;;;;;;5065367;28;19925;-63
2022/12/02 11:56:40;;;;;;;;;;;13.00;91.70;;;;;;5049204;28;19925;-66
2022/12/02 11:59:25;;;;;;;;;;;12.90;91.60;;;;;;5016090;28;19932;-64
2022/12/02 12:02:05;;;;;;;;;;;13.10;91.70;;;;;;5031903;28;19980;-64
2022/12/02 12:04:30;;;;;;;;;;;12.80;91.50;;;;;;5033748;28;20016;-64
2022/12/02 12:06:56;;;;;;;;;;;13.00;91.70;;;;;;5065891;28;19976;-67
2022/12/02 12:09:22;;;;;;;;;;;13.10;91.70;;;;;;5031540;28;19933;-68
2022/12/02 12:12:06;;;;;;;;;;;12.90;91.50;;;;;;5063995;28;20319;-64
2022/12/02 12:14:32;;;;;;;;;;;13.10;91.70;;;;;;5033498;28;19925;-64
2022/12/02 12:17:16;;;;;;;;;;;13.10;91.60;;;;;;5033890;28;19979;-65
2022/12/02 12:19:42;;;;;;;;;;;13.10;91.60;;;;;;5026225;28;20443;-65
2022/12/02 12:22:24;;;;;;;;;;;12.90;91.50;;;;;;5011712;28;19925;-64
2022/12/02 12:24:50;;;;;;;;;;;13.10;91.60;;;;;;5015830;28;20008;-63
2022/12/02 12:27:36;;;;;;;;;;;13.00;91.60;;;;;;5034086;28;20008;-64
2022/12/02 12:30:03;;;;;;;;;;;12.90;91.10;;;;;;5048598;28;19925;-67
2022/12/02 12:32:28;;;;;;;;;;;12.90;91.50;;;;;;5031062;28;19931;-69
2022/12/02 12:34:54;;;;;;;;;;;12.80;91.50;;;;;;5033704;28;20012;-68
2022/12/02 12:37:20;;;;;;;;;;;12.90;91.40;;;;;;5052510;28;20454;-63
2022/12/02 12:39:46;;;;;;;;;;;;;;;;;;5015416;28;19926;-66
2022/12/02 12:42:11;;;;;;;;;;;13.00;91.40;;;;;;5027843;28;19951;-62
2022/12/02 12:44:37;;;;;;;;;;;12.70;91.30;;;;;;5030194;28;19929;-64
2022/12/02 12:47:04;;;;;;;;;;;12.80;91.40;;;;;;5033151;28;19960;-63
2022/12/02 12:49:30;;;;;;;;;;;13.00;91.40;;;;;;5032466;28;19932;-63
2022/12/02 12:51:55;;;;;;;;;;;12.70;91.30;;;;;;5035908;28;20384;-63
2022/12/02 12:54:21;;;;;;;;;;;12.90;91.40;;;;;;5024200;28;20024;-62
2022/12/02 12:56:46;;;;;;;;;;;12.90;91.30;;;;;;5025543;28;19978;-63
2022/12/02 12:59:12;;;;;;;;;;;;;;;;;;5069306;28;20356;-64
2022/12/02 13:01:38;;;;;;;;;;;;;;;;;;5035984;28;19926;-65
2022/12/02 13:04:04;;;;;;;;;;;13.00;91.30;;;;;;5032579;28;20066;-65
2022/12/02 13:06:30;;;;;;;;;;;13.00;91.20;;;;;;5034243;28;19943;-64
2022/12/02 13:08:56;;;;;;;;;;;;;;;;;;5035279;28;19929;-63
2022/12/02 13:11:21;;;;;;;;;;;13.20;91.30;;;;;;5023783;28;19926;-63
2022/12/02 13:13:47;;;;;;;;;;;;;;;;;;5017066;28;19925;-65
2022/12/02 13:16:13;;;;;;;;;;;12.60;91.10;;;;;;5017149;28;19925;-65
2022/12/02 13:18:39;;;;;;;;;;;;;;;;;;5024150;28;20012;-64
2022/12/02 13:21:04;;;;;;;;;;;13.00;91.20;;;;;;5035145;28;19932;-64
2022/12/02 13:23:30;;;;;;;;;;;12.90;91.20;;;;;;5066317;28;19972;-65
2022/12/02 13:25:56;;;;;;;;;;;;;;;;;;5036465;28;19925;-65
2022/12/02 13:28:22;;;;;;;;;;;12.80;91.10;;;;;;5026810;28;19925;-63
2022/12/02 13:30:47;;;;;;;;;;;12.90;91.10;;;;;;5035626;28;20024;-64
2022/12/02 13:33:13;;;;;;;;;;;12.80;91.10;;;;;;5069490;28;19968;-63
2022/12/02 13:35:39;;;;;;;;;;;12.90;91.10;;;;;;5019242;28;19932;-63
2022/12/02 13:38:04;;;;;;;;;;;13.10;91.10;;;;;;5065197;28;20409;-62
2022/12/02 13:40:30;;;;;;;;;;;12.80;91.10;;;;;;5067182;28;19926;-62
2022/12/02 13:42:56;;;;;;;;;;;;;;;;;;5065837;28;19925;-69
2022/12/02 13:45:23;;;;;;;;;;;12.70;91.00;;;;;;5054479;28;19971;-63
2022/12/02 13:47:49;;;;;;;;;;;12.80;91.00;;;;;;5033035;28;20480;-63
2022/12/02 13:50:14;;;;;;;;;;;13.00;91.10;;;;;;5034675;28;19925;-62
2022/12/02 13:52:40;;;;;;;;;;;12.80;91.00;;;;;;5068156;28;19925;-61
2022/12/02 13:55:06;;;;;;;;;;;12.70;90.90;;;;;;5035877;28;19964;-62
2022/12/02 13:57:31;;;;;;;;;;;12.70;90.80;;;;;;5067690;28;19979;-64
2022/12/02 13:59:57;;;;;;;;;;;12.80;90.90;;;;;;5041834;28;19932;-63
2022/12/02 14:02:22;;;;;;;;;;;12.90;91.00;;;;;;5041929;28;20377;-62
2022/12/02 14:04:48;;;;;;;;;;;12.90;91.00;;;;;;5067849;28;20303;-62
2022/12/02 14:07:14;;;;;;;;;;;12.80;90.90;;;;;;5067708;28;19929;-67
2022/12/02 14:09:39;;;;;;;;;;;12.70;90.90;;;;;;5035551;28;19983;-66
2022/12/02 14:12:05;;;;;;;;;;;12.80;90.90;;;;;;5035954;28;19967;-62
2022/12/02 14:14:31;;;;;;;;;;;;;;;;;;5034533;28;20278;-64
2022/12/02 14:16:57;;;;;;;;;;;12.80;90.90;;;;;;5035818;28;19979;-63
2022/12/02 14:19:22;;;;;;;;;;;12.70;90.90;;;;;;5022632;28;20285;-63
2022/12/02 14:21:48;;;;;;;;;;;12.80;90.90;;;;;;5015663;28;20350;-63
2022/12/02 14:24:14;;;;;;;;;;;12.50;90.80;;;;;;5015644;28;19934;-64
2022/12/02 14:26:39;;;;;;;;;;;13.00;91.00;;;;;;5035151;28;19925;-63
2022/12/02 14:29:05;;;;;;;;;;;12.90;91.10;;;;;;5034020;28;19925;-63
2022/12/02 14:31:31;;;;;;;;;;;13.00;91.00;;;;;;5036067;28;19925;-63
2022/12/02 14:33:56;;;;;;;;;;;12.70;91.00;;;;;;5035399;28;19932;-63
2022/12/02 14:36:22;;;;;;;;;;;12.70;91.00;;;;;;5022512;28;19925;-63
2022/12/02 14:38:47;;;;;;;;;;;12.70;91.00;;;;;;5030942;28;20020;-63